Ashville, Canada
Current Conditions -  °F | °C
As of 7:00 AM on Thursday 27 Nov 2014 (Local Time) from CYDN Reporting Station
Clear Clear  
Wind Chill: -25°   Ceiling: Unl
Heat Index: -11°   Visibility: 9mi
Dew Point: -17°   Wind: 6mph
Humidity: 77%   Direction: 270°W
Pressure: 30.33"   Gusts: NA
Location:  51.18°N, 100.3°W
Report Text: CYDN 271300Z AUTO 27005KT 9SM CLR M24/M27 A3033 RMK SLP312
Loading
Personal Weather Stations






























Interactive Weather Map New forecast layout! Learn more

10-Day Weather Forecast

Advertisements
Track Severe Weather on mobile